Time,TemperatureF,DewpointF,PressureIn,WindDirection,WindDirectionDegrees,WindSpeedMPH,WindSpeedGustMPH,Humidity,HourlyPrecipIn,Conditions,Clouds,dailyrainin,SoftwareType,DateUTC
2013-02-05 00:01:00,14.9,2.0,29.87,NNW,330,2.0,3.0,58,0.00,,,0.00,weatherlink.com 1.10,2013-02-05 05:01:00,
2013-02-05 00:16:00,14.9,2.0,29.87,NW,319,0.0,4.0,56,0.00,,,0.00,weatherlink.com 1.10,2013-02-05 05:16:00,
2013-02-05 00:31:00,14.7,2.0,29.88,ESE,105,0.0,1.0,56,0.00,,,0.00,weatherlink.com 1.10,2013-02-05 05:31:00,
2013-02-05 00:46:00,14.1,2.0,29.88,ESE,122,1.0,2.0,58,0.00,,,0.00,weatherlink.com 1.10,2013-02-05 05:46:00,
2013-02-05 01:01:00,13.5,2.0,29.89,SSE,163,0.0,1.0,59,0.00,,,0.00,weatherlink.com 1.10,2013-02-05 06:01:00,
2013-02-05 01:31:00,12.9,2.0,29.89,WSW,238,0.0,1.0,61,0.00,,,0.00,weatherlink.com 1.10,2013-02-05 06:31:00,
2013-02-05 01:46:00,13.7,2.0,29.90,NNE,25,2.0,3.0,59,0.00,,,0.00,weatherlink.com 1.10,2013-02-05 06:46:00,
2013-02-05 02:01:00,14.1,1.0,29.91,NNE,31,0.0,3.0,57,0.00,,,0.00,weatherlink.com 1.10,2013-02-05 07:01:00,
2013-02-05 02:16:00,13.4,1.0,29.91,SE,126,0.0,1.0,59,0.00,,,0.00,weatherlink.com 1.10,2013-02-05 07:16:00,
2013-02-05 02:31:00,12.8,2.0,29.91,SSE,167,0.0,1.0,61,0.00,,,0.00,weatherlink.com 1.10,2013-02-05 07:31:00,
2013-02-05 02:46:00,12.1,2.0,29.90,SE,145,0.0,2.0,63,0.00,,,0.00,weatherlink.com 1.10,2013-02-05 07:46:00,
2013-02-05 03:01:00,11.5,2.0,29.91,SE,145,0.0,0.0,65,0.00,,,0.00,weatherlink.com 1.10,2013-02-05 08:01:00,
2013-02-05 03:16:00,10.9,2.0,29.91,SE,145,0.0,0.0,67,0.00,,,0.00,weatherlink.com 1.10,2013-02-05 08:16:00,
2013-02-05 03:31:00,10.2,2.0,29.91,SSE,165,0.0,1.0,69,0.00,,,0.00,weatherlink.com 1.10,2013-02-05 08:31:00,
2013-02-05 03:47:00,9.6,2.0,29.92,SSE,165,0.0,1.0,70,0.00,,,0.00,weatherlink.com 1.10,2013-02-05 08:47:00,
2013-02-05 04:01:00,9.9,3.0,29.92,West,276,0.0,1.0,72,0.00,,,0.00,weatherlink.com 1.10,2013-02-05 09:01:00,
2013-02-05 04:16:00,10.2,3.0,29.92,WNW,295,0.0,1.0,72,0.00,,,0.00,weatherlink.com 1.10,2013-02-05 09:16:00,
2013-02-05 04:31:00,10.2,3.0,29.92,WNW,295,0.0,1.0,73,0.00,,,0.00,weatherlink.com 1.10,2013-02-05 09:31:00,
2013-02-05 04:47:00,10.7,3.0,29.93,WNW,295,0.0,1.0,71,0.00,,,0.00,weatherlink.com 1.10,2013-02-05 09:47:00,
2013-02-05 05:01:00,10.5,3.0,29.93,WNW,295,0.0,1.0,72,0.00,,,0.00,weatherlink.com 1.10,2013-02-05 10:01:00,
2013-02-05 05:16:00,10.1,3.0,29.93,WNW,295,0.0,0.0,73,0.00,,,0.00,weatherlink.com 1.10,2013-02-05 10:16:00,
2013-02-05 05:32:00,9.8,3.0,29.93,WNW,295,0.0,2.0,75,0.00,,,0.00,weatherlink.com 1.10,2013-02-05 10:32:00,
2013-02-05 05:46:00,9.6,4.0,29.93,WNW,295,0.0,1.0,76,0.00,,,0.00,weatherlink.com 1.10,2013-02-05 10:46:00,
2013-02-05 06:01:00,9.2,3.0,29.94,WNW,295,0.0,1.0,75,0.00,,,0.00,weatherlink.com 1.10,2013-02-05 11:01:00,
2013-02-05 06:16:00,9.6,3.0,29.94,WNW,298,0.0,1.0,75,0.00,,,0.00,weatherlink.com 1.10,2013-02-05 11:16:00,
2013-02-05 06:32:00,10.5,3.0,29.95,WNW,301,0.0,1.0,73,0.00,,,0.00,weatherlink.com 1.10,2013-02-05 11:32:00,
2013-02-05 06:46:00,10.0,4.0,29.95,WNW,301,0.0,1.0,75,0.00,,,0.00,weatherlink.com 1.10,2013-02-05 11:46:00,
2013-02-05 07:01:00,9.2,3.0,29.96,WNW,301,0.0,1.0,74,0.00,,,0.00,weatherlink.com 1.10,2013-02-05 12:01:00,
2013-02-05 07:16:00,8.8,2.0,29.97,NW,305,0.0,1.0,75,0.00,,,0.00,weatherlink.com 1.10,2013-02-05 12:16:00,
2013-02-05 07:32:00,9.2,2.0,29.97,NW,322,0.0,1.0,71,0.00,,,0.00,weatherlink.com 1.10,2013-02-05 12:32:00,
2013-02-05 07:47:00,9.7,1.0,29.97,NW,311,0.0,1.0,69,0.00,,,0.00,weatherlink.com 1.10,2013-02-05 12:47:00,
2013-02-05 08:02:00,9.9,1.0,29.98,NNE,19,0.0,1.0,67,0.00,,,0.00,weatherlink.com 1.10,2013-02-05 13:02:00,
2013-02-05 08:17:00,10.3,2.0,29.99,NNE,20,0.0,2.0,68,0.00,,,0.00,weatherlink.com 1.10,2013-02-05 13:17:00,
2013-02-05 08:32:00,10.8,1.0,30.00,NNW,338,0.0,2.0,65,0.00,,,0.00,weatherlink.com 1.10,2013-02-05 13:32:00,
2013-02-05 08:47:00,11.6,2.0,30.01,NNW,337,0.0,1.0,65,0.00,,,0.00,weatherlink.com 1.10,2013-02-05 13:47:00,
2013-02-05 09:02:00,11.9,1.0,30.01,NNW,338,1.0,3.0,62,0.00,,,0.00,weatherlink.com 1.10,2013-02-05 14:02:00,
2013-02-05 09:17:00,13.1,3.0,30.00,NE,44,0.0,1.0,63,0.00,,,0.00,weatherlink.com 1.10,2013-02-05 14:17:00,
2013-02-05 09:32:00,14.4,3.0,30.01,NNW,340,0.0,3.0,61,0.00,,,0.00,weatherlink.com 1.10,2013-02-05 14:32:00,
2013-02-05 09:47:00,16.1,4.0,30.00,West,273,0.0,2.0,60,0.00,,,0.00,weatherlink.com 1.10,2013-02-05 14:47:00,
2013-02-05 10:02:00,17.0,4.0,30.00,North,5,2.0,3.0,57,0.00,,,0.00,weatherlink.com 1.10,2013-02-05 15:02:00,
2013-02-05 10:17:00,16.7,3.0,30.00,NW,317,5.0,6.0,55,0.00,,,0.00,weatherlink.com 1.10,2013-02-05 15:17:00,
2013-02-05 10:32:00,16.6,3.0,30.00,SW,222,0.0,3.0,56,0.00,,,0.00,weatherlink.com 1.10,2013-02-05 15:32:00,
2013-02-05 10:47:00,17.0,4.0,30.01,SW,232,1.0,2.0,56,0.00,,,0.00,weatherlink.com 1.10,2013-02-05 15:47:00,
2013-02-05 11:02:00,17.3,4.0,30.00,SE,129,0.0,3.0,56,0.00,,,0.00,weatherlink.com 1.10,2013-02-05 16:02:00,
2013-02-05 11:17:00,17.7,4.0,30.00,NW,312,0.0,4.0,54,0.00,,,0.00,weatherlink.com 1.10,2013-02-05 16:17:00,
2013-02-05 11:32:00,18.2,4.0,29.99,NE,47,1.0,5.0,53,0.00,,,0.00,weatherlink.com 1.10,2013-02-05 16:32:00,
2013-02-05 11:47:00,19.2,5.0,29.99,North,8,1.0,2.0,54,0.00,,,0.00,weatherlink.com 1.10,2013-02-05 16:47:00,
2013-02-05 12:02:00,19.9,5.0,29.98,SSE,165,1.0,3.0,53,0.00,,,0.00,weatherlink.com 1.10,2013-02-05 17:02:00,
2013-02-05 12:17:00,21.0,5.0,29.98,North,352,2.0,4.0,50,0.00,,,0.00,weatherlink.com 1.10,2013-02-05 17:17:00,
2013-02-05 12:32:00,21.9,6.0,29.98,WSW,250,0.0,2.0,50,0.00,,,0.00,weatherlink.com 1.10,2013-02-05 17:32:00,
2013-02-05 12:47:00,21.7,5.0,29.97,WSW,239,1.0,4.0,49,0.00,,,0.00,weatherlink.com 1.10,2013-02-05 17:47:00,
2013-02-05 13:02:00,22.4,5.0,29.97,North,11,0.0,3.0,47,0.00,,,0.00,weatherlink.com 1.10,2013-02-05 18:02:00,
2013-02-05 13:17:00,23.1,6.0,29.96,SSW,205,2.0,3.0,48,0.00,,,0.00,weatherlink.com 1.10,2013-02-05 18:17:00,
2013-02-05 13:32:00,23.7,6.0,29.95,WSW,250,1.0,2.0,46,0.00,,,0.00,weatherlink.com 1.10,2013-02-05 18:32:00,
2013-02-05 13:47:00,23.8,5.0,29.95,ENE,72,0.0,5.0,45,0.00,,,0.00,weatherlink.com 1.10,2013-02-05 18:47:00,
2013-02-05 14:02:00,24.5,5.0,29.95,ESE,115,2.0,3.0,44,0.00,,,0.00,weatherlink.com 1.10,2013-02-05 19:02:00,
2013-02-05 14:17:00,24.4,6.0,29.95,ENE,65,1.0,2.0,46,0.00,,,0.00,weatherlink.com 1.10,2013-02-05 19:17:00,
2013-02-05 14:33:00,25.1,5.0,29.95,NE,38,0.0,5.0,43,0.00,,,0.00,weatherlink.com 1.10,2013-02-05 19:33:00,
2013-02-05 14:48:00,25.2,6.0,29.95,SE,140,3.0,3.0,44,0.00,,,0.00,weatherlink.com 1.10,2013-02-05 19:48:00,
2013-02-05 15:18:00,24.8,7.0,29.94,WSW,252,1.0,2.0,47,0.00,,,0.00,weatherlink.com 1.10,2013-02-05 20:18:00,
2013-02-05 15:32:00,24.6,6.0,29.94,SSW,211,0.0,2.0,45,0.00,,,0.00,weatherlink.com 1.10,2013-02-05 20:32:00,
2013-02-05 15:47:00,24.2,7.0,29.94,SE,128,1.0,2.0,48,0.00,,,0.00,weatherlink.com 1.10,2013-02-05 20:47:00,
2013-02-05 16:02:00,23.9,7.0,29.94,SSE,152,0.0,1.0,48,0.00,,,0.00,weatherlink.com 1.10,2013-02-05 21:02:00,
2013-02-05 16:17:00,23.7,7.0,29.93,SSE,155,0.0,1.0,49,0.00,,,0.00,weatherlink.com 1.10,2013-02-05 21:17:00,
2013-02-05 16:32:00,23.4,7.0,29.93,SE,132,1.0,1.0,50,0.00,,,0.00,weatherlink.com 1.10,2013-02-05 21:32:00,
2013-02-05 16:47:00,23.0,7.0,29.94,SE,132,1.0,1.0,51,0.00,,,0.00,weatherlink.com 1.10,2013-02-05 21:47:00,
2013-02-05 17:02:00,22.8,7.0,29.94,SE,132,0.0,1.0,51,0.00,,,0.00,weatherlink.com 1.10,2013-02-05 22:02:00,
2013-02-05 17:18:00,22.3,7.0,29.94,SE,132,0.0,0.0,53,0.00,,,0.00,weatherlink.com 1.10,2013-02-05 22:18:00,
2013-02-05 17:33:00,21.6,7.0,29.94,SE,133,0.0,0.0,54,0.00,,,0.00,weatherlink.com 1.10,2013-02-05 22:33:00,
2013-02-05 17:49:00,20.9,8.0,29.94,SE,132,0.0,0.0,57,0.00,,,0.00,weatherlink.com 1.10,2013-02-05 22:49:00,
2013-02-05 18:02:00,20.5,8.0,29.94,SE,132,0.0,0.0,58,0.00,,,0.00,weatherlink.com 1.10,2013-02-05 23:02:00,
2013-02-05 18:17:00,20.1,7.0,29.94,SE,133,0.0,0.0,58,0.00,,,0.00,weatherlink.com 1.10,2013-02-05 23:17:00,
2013-02-05 18:32:00,20.1,7.0,29.94,SE,133,0.0,0.0,58,0.00,,,0.00,weatherlink.com 1.10,2013-02-05 23:32:00,
2013-02-05 18:48:00,20.1,8.0,29.95,SE,133,0.0,1.0,59,0.00,,,0.00,weatherlink.com 1.10,2013-02-05 23:48:00,
2013-02-05 19:03:00,20.6,9.0,29.95,ESE,115,1.0,2.0,60,0.00,,,0.00,weatherlink.com 1.10,2013-02-06 00:03:00,
2013-02-05 19:18:00,20.8,9.0,29.95,SE,127,1.0,2.0,60,0.00,,,0.00,weatherlink.com 1.10,2013-02-06 00:18:00,
2013-02-05 19:33:00,20.6,9.0,29.95,SE,139,0.0,2.0,62,0.00,,,0.00,weatherlink.com 1.10,2013-02-06 00:33:00,
2013-02-05 19:48:00,20.4,9.0,29.95,SE,142,0.0,1.0,62,0.00,,,0.00,weatherlink.com 1.10,2013-02-06 00:48:00,
2013-02-05 20:03:00,20.2,9.0,29.95,SSW,194,0.0,1.0,63,0.00,,,0.00,weatherlink.com 1.10,2013-02-06 01:03:00,
2013-02-05 20:18:00,20.0,10.0,29.95,SSE,156,0.0,1.0,65,0.00,,,0.00,weatherlink.com 1.10,2013-02-06 01:18:00,
2013-02-05 20:33:00,19.8,10.0,29.95,SSW,192,0.0,1.0,65,0.00,,,0.00,weatherlink.com 1.10,2013-02-06 01:33:00,
2013-02-05 20:48:00,19.3,10.0,29.95,South,191,0.0,1.0,66,0.00,,,0.00,weatherlink.com 1.10,2013-02-06 01:48:00,
2013-02-05 21:03:00,18.8,9.0,29.95,South,191,0.0,0.0,67,0.00,,,0.00,weatherlink.com 1.10,2013-02-06 02:03:00,
2013-02-05 21:18:00,18.3,9.0,29.95,South,191,0.0,0.0,68,0.00,,,0.00,weatherlink.com 1.10,2013-02-06 02:18:00,
2013-02-05 21:33:00,18.4,10.0,29.95,South,191,0.0,0.0,71,0.00,,,0.00,weatherlink.com 1.10,2013-02-06 02:33:00,
2013-02-05 21:48:00,18.8,11.0,29.95,South,191,0.0,0.0,70,0.00,,,0.00,weatherlink.com 1.10,2013-02-06 02:48:00,
2013-02-05 22:04:00,19.3,11.0,29.94,SE,140,0.0,1.0,70,0.00,,,0.00,weatherlink.com 1.10,2013-02-06 03:04:00,
2013-02-05 22:18:00,19.6,11.0,29.94,SE,139,0.0,0.0,70,0.00,,,0.00,weatherlink.com 1.10,2013-02-06 03:18:00,
2013-02-05 22:33:00,19.8,12.0,29.93,SE,139,0.0,1.0,70,0.00,,,0.00,weatherlink.com 1.10,2013-02-06 03:33:00,
2013-02-05 22:48:00,19.9,12.0,29.93,SE,139,0.0,1.0,70,0.00,,,0.00,weatherlink.com 1.10,2013-02-06 03:48:00,
2013-02-05 23:03:00,20.1,12.0,29.93,SE,139,0.0,1.0,71,0.00,,,0.00,weatherlink.com 1.10,2013-02-06 04:03:00,
2013-02-05 23:18:00,20.4,12.0,29.94,SE,142,0.0,1.0,71,0.00,,,0.00,weatherlink.com 1.10,2013-02-06 04:18:00,
2013-02-05 23:33:00,20.5,13.0,29.94,SE,142,0.0,0.0,72,0.00,,,0.00,weatherlink.com 1.10,2013-02-06 04:33:00,
2013-02-05 23:48:00,20.9,14.0,29.94,SE,142,0.0,1.0,74,0.00,,,0.00,weatherlink.com 1.10,2013-02-06 04:48:00,